Time;durP1;ratioP1;P1;durP2;ratioP2;P2;SDS_P1;SDS_P2;PMS_P1;PMS_P2;Temp;Humidity;BMP_temperature;BMP_pressure;BME280_temperature;BME280_humidity;BME280_pressure;Samples;Min_cycle;Max_cycle;Signal;HPM_P1;HPM_P2
2021/09/20 00:00:11;;;;;;;5.70;4.73;;;17.40;99.90;;;;;;5096439;28;20242;-63
2021/09/20 00:02:37;;;;;;;6.00;4.00;;;17.40;99.90;;;;;;5096071;28;20655;-64
2021/09/20 00:05:04;;;;;;;5.30;4.30;;;17.30;99.90;;;;;;5096241;28;20444;-63
2021/09/20 00:07:30;;;;;;;5.37;4.43;;;17.30;99.90;;;;;;5095931;28;20175;-63
2021/09/20 00:09:55;;;;;;;5.00;3.83;;;17.30;99.90;;;;;;5096097;28;20433;-63
2021/09/20 00:12:21;;;;;;;6.83;4.90;;;17.20;99.90;;;;;;5077947;28;20176;-64
2021/09/20 00:14:46;;;;;;;5.90;4.80;;;17.20;99.90;;;;;;5095619;28;20281;-63
2021/09/20 00:17:12;;;;;;;5.67;5.07;;;17.10;99.90;;;;;;5095554;28;20239;-63
2021/09/20 00:19:38;;;;;;;5.00;4.10;;;17.10;99.90;;;;;;5077505;28;20216;-65
2021/09/20 00:22:03;;;;;;;5.30;3.97;;;17.10;99.90;;;;;;5077706;28;20275;-63
2021/09/20 00:24:29;;;;;;;6.40;4.40;;;17.00;99.90;;;;;;5095828;28;20641;-63
2021/09/20 00:26:55;;;;;;;5.30;4.23;;;17.00;99.90;;;;;;5077470;28;20391;-63
2021/09/20 00:29:21;;;;;;;5.63;4.53;;;17.00;99.90;;;;;;5095737;28;20201;-63
2021/09/20 00:31:47;;;;;;;4.20;3.80;;;16.90;99.90;;;;;;5095410;28;20208;-64
2021/09/20 00:34:12;;;;;;;5.80;4.03;;;16.90;99.90;;;;;;5095335;28;20471;-63
2021/09/20 00:36:38;;;;;;;4.67;3.00;;;16.90;99.90;;;;;;5095424;28;20638;-63
2021/09/20 00:39:04;;;;;;;5.90;3.90;;;16.90;99.90;;;;;;5095319;28;20227;-64
2021/09/20 00:41:30;;;;;;;4.67;3.87;;;16.80;99.90;;;;;;5095329;28;20172;-64
2021/09/20 00:43:55;;;;;;;3.83;3.40;;;16.80;99.90;;;;;;5095257;28;20522;-63
2021/09/20 00:46:21;;;;;;;5.77;3.93;;;16.80;99.90;;;;;;5095224;28;20404;-65
2021/09/20 00:48:47;;;;;;;4.20;3.40;;;16.80;99.90;;;;;;5095136;28;20200;-63
2021/09/20 00:51:12;;;;;;;4.20;3.33;;;16.70;99.90;;;;;;5095245;28;20543;-63
2021/09/20 00:53:38;;;;;;;4.20;3.80;;;16.70;99.90;;;;;;5095014;28;20245;-63
2021/09/20 00:56:05;;;;;;;4.90;3.20;;;16.70;99.90;;;;;;5095045;28;20188;-63
2021/09/20 00:58:31;;;;;;;5.83;4.30;;;16.70;99.90;;;;;;5076681;28;20230;-63
2021/09/20 01:01:00;;;;;;;4.07;3.67;;;16.70;99.90;;;;;;5094911;28;20846;-65
2021/09/20 01:03:26;;;;;;;3.63;3.00;;;16.70;99.90;;;;;;5094727;28;20172;-63
2021/09/20 01:05:51;;;;;;;4.70;3.37;;;16.70;99.90;;;;;;5094734;28;20409;-64
2021/09/20 01:08:17;;;;;;;5.40;3.40;;;16.70;99.90;;;;;;5076405;28;20401;-65
2021/09/20 01:10:42;;;;;;;4.93;3.63;;;16.60;99.90;;;;;;5094690;28;20666;-64
2021/09/20 01:13:08;;;;;;;4.07;3.50;;;16.60;99.90;;;;;;5094702;28;20172;-63
2021/09/20 01:15:34;;;;;;;5.30;3.50;;;16.60;99.90;;;;;;5076316;28;20204;-63
2021/09/20 01:17:59;;;;;;;4.27;3.23;;;16.50;99.90;;;;;;5094468;28;20304;-63
2021/09/20 01:20:25;;;;;;;4.00;2.80;;;16.50;99.90;;;;;;5094945;28;20200;-63
2021/09/20 01:22:58;;;;;;;3.33;3.00;;;16.50;99.90;;;;;;5076309;28;20706;-64
2021/09/20 01:25:23;;;;;;;4.30;3.70;;;16.40;99.90;;;;;;5094960;28;20272;-63
2021/09/20 01:27:49;;;;;;;3.50;3.20;;;16.40;99.90;;;;;;5076159;28;20949;-63
2021/09/20 01:30:14;;;;;;;2.80;2.57;;;16.40;99.90;;;;;;5094781;28;20275;-63
2021/09/20 01:32:40;;;;;;;3.77;3.23;;;16.40;99.90;;;;;;5094441;28;20533;-64
2021/09/20 01:35:06;;;;;;;3.73;3.00;;;16.40;99.90;;;;;;5094720;28;20207;-63
2021/09/20 01:37:32;;;;;;;3.40;2.90;;;16.40;99.90;;;;;;5094324;28;20173;-64
2021/09/20 01:39:57;;;;;;;4.40;3.50;;;16.30;99.90;;;;;;5075982;28;20480;-63
2021/09/20 01:42:23;;;;;;;3.33;3.03;;;16.30;99.90;;;;;;5076103;28;20176;-64
2021/09/20 01:44:49;;;;;;;3.67;3.27;;;16.30;99.90;;;;;;5076048;28;20291;-63
2021/09/20 01:47:14;;;;;;;4.33;3.20;;;16.30;99.90;;;;;;5093521;28;20172;-64
2021/09/20 01:49:40;;;;;;;4.00;3.20;;;16.30;99.90;;;;;;5094261;28;20433;-64
2021/09/20 01:52:06;;;;;;;5.50;4.10;;;16.30;99.90;;;;;;5094083;28;20649;-64
2021/09/20 01:54:32;;;;;;;4.97;3.37;;;16.30;99.90;;;;;;5094245;28;20283;-63
2021/09/20 01:56:58;;;;;;;3.43;3.13;;;16.30;99.90;;;;;;5075876;28;20179;-63
2021/09/20 01:59:23;;;;;;;4.50;4.10;;;16.30;99.90;;;;;;5094003;28;20822;-63
2021/09/20 02:01:49;;;;;;;4.77;3.80;;;16.20;99.90;;;;;;5075815;28;20206;-65
2021/09/20 02:04:15;;;;;;;4.23;3.70;;;16.20;99.90;;;;;;5093784;28;20192;-65
2021/09/20 02:06:41;;;;;;;4.67;4.27;;;16.20;99.90;;;;;;5093925;28;20218;-65
2021/09/20 02:09:09;;;;;;;4.47;4.03;;;16.20;99.90;;;;;;5093914;28;20196;-63
2021/09/20 02:11:35;;;;;;;4.40;3.93;;;16.20;99.90;;;;;;5093772;28;20175;-63
2021/09/20 02:14:01;;;;;;;5.03;4.50;;;16.20;99.90;;;;;;5075625;28;20445;-63
2021/09/20 02:16:27;;;;;;;4.73;4.23;;;16.10;99.90;;;;;;5068873;28;20584;-63
2021/09/20 02:18:53;;;;;;;5.13;4.27;;;16.10;99.90;;;;;;5053454;28;20819;-63
2021/09/20 02:21:19;;;;;;;4.40;4.00;;;16.10;99.90;;;;;;5069060;28;20534;-63
2021/09/20 02:23:45;;;;;;;4.70;4.20;;;16.10;99.90;;;;;;5053356;28;20666;-64
2021/09/20 02:26:10;;;;;;;6.20;4.33;;;16.10;99.90;;;;;;5053492;28;20409;-63
2021/09/20 02:28:37;;;;;;;7.73;4.67;;;16.00;99.90;;;;;;5053463;28;20216;-63
2021/09/20 02:31:04;;;;;;;5.93;4.70;;;16.00;99.90;;;;;;5052095;28;20182;-64
2021/09/20 02:33:31;;;;;;;8.50;5.13;;;15.90;99.90;;;;;;5053350;28;20904;-63
2021/09/20 02:35:57;;;;;;;5.87;4.97;;;15.90;99.90;;;;;;5053378;28;20418;-64
2021/09/20 02:38:22;;;;;;;6.27;4.80;;;15.90;99.90;;;;;;5053261;28;20963;-63
2021/09/20 02:40:48;;;;;;;5.83;4.60;;;15.90;99.90;;;;;;5068780;28;20185;-64
2021/09/20 02:43:14;;;;;;;5.23;4.73;;;15.80;99.90;;;;;;5053298;28;20253;-63
2021/09/20 02:45:39;;;;;;;6.63;5.23;;;15.80;99.90;;;;;;5052200;28;20182;-64
2021/09/20 02:48:05;;;;;;;5.90;5.30;;;15.70;99.90;;;;;;5051942;28;20204;-64
2021/09/20 02:50:30;;;;;;;6.23;5.07;;;15.70;99.90;;;;;;5068434;28;20202;-63
2021/09/20 02:52:56;;;;;;;6.73;4.70;;;15.70;99.90;;;;;;5051922;28;20294;-64
2021/09/20 02:55:21;;;;;;;6.27;5.57;;;15.70;99.90;;;;;;5053620;28;20186;-63
2021/09/20 02:57:47;;;;;;;6.13;4.93;;;15.70;99.90;;;;;;5053893;28;20209;-63
2021/09/20 03:00:13;;;;;;;8.67;5.37;;;15.70;99.90;;;;;;5057579;28;20697;-63
2021/09/20 03:02:39;;;;;;;5.77;5.17;;;15.70;99.90;;;;;;5072328;28;20190;-63
2021/09/20 03:05:06;;;;;;;5.50;4.73;;;15.70;99.90;;;;;;5057151;28;20441;-63
2021/09/20 03:07:31;;;;;;;5.97;5.20;;;15.80;99.90;;;;;;5072260;28;20811;-64
2021/09/20 03:09:57;;;;;;;7.30;5.47;;;15.80;99.90;;;;;;5057079;28;20458;-63
2021/09/20 03:12:23;;;;;;;6.20;5.40;;;15.80;99.90;;;;;;5056704;28;20189;-64
2021/09/20 03:14:48;;;;;;;7.10;5.67;;;15.80;99.90;;;;;;5056856;28;20438;-63
2021/09/20 03:17:14;;;;;;;6.60;5.77;;;15.80;99.90;;;;;;5055380;28;20248;-64
2021/09/20 03:19:40;;;;;;;7.70;5.77;;;15.80;99.90;;;;;;5056720;28;20221;-64
2021/09/20 03:22:06;;;;;;;6.40;5.30;;;15.80;99.90;;;;;;5055293;28;20189;-64
2021/09/20 03:24:32;;;;;;;6.90;6.20;;;15.80;99.90;;;;;;5056743;28;20426;-64
2021/09/20 03:26:58;;;;;;;5.80;5.20;;;15.80;99.90;;;;;;5056400;28;20178;-64
2021/09/20 03:29:23;;;;;;;6.37;5.10;;;15.70;99.90;;;;;;5056616;28;20415;-64
2021/09/20 03:31:49;;;;;;;6.37;5.23;;;15.70;99.90;;;;;;5056408;28;20601;-64
2021/09/20 03:34:15;;;;;;;6.30;4.57;;;15.70;99.90;;;;;;5055035;28;20198;-64
2021/09/20 03:36:41;;;;;;;5.87;4.97;;;15.70;99.90;;;;;;5056314;28;20236;-65
2021/09/20 03:39:07;;;;;;;5.20;4.70;;;15.70;99.90;;;;;;5054787;28;20225;-63
2021/09/20 03:41:33;;;;;;;5.83;5.20;;;15.70;99.90;;;;;;5056270;28;20411;-64
2021/09/20 03:43:59;;;;;;;7.07;5.83;;;15.60;99.90;;;;;;5056173;28;20556;-64
2021/09/20 03:46:25;;;;;;;6.93;5.60;;;15.60;99.90;;;;;;5053412;28;20192;-65
2021/09/20 03:48:51;;;;;;;6.30;5.30;;;15.60;99.90;;;;;;5035510;28;20203;-64
2021/09/20 03:51:17;;;;;;;6.53;5.37;;;15.60;99.90;;;;;;5032866;28;20462;-65
2021/09/20 03:53:42;;;;;;;7.43;5.30;;;15.60;99.90;;;;;;5034435;28;20332;-63
2021/09/20 03:56:08;;;;;;;6.73;5.63;;;15.60;99.90;;;;;;5036009;28;20750;-65
2021/09/20 03:58:35;;;;;;;6.67;5.63;;;15.60;99.90;;;;;;5054883;28;20227;-64
2021/09/20 04:01:01;;;;;;;5.47;4.97;;;15.60;99.90;;;;;;5064060;28;20200;-64
2021/09/20 04:03:26;;;;;;;7.00;5.23;;;15.50;99.90;;;;;;5072474;28;20426;-64
2021/09/20 04:05:52;;;;;;;6.20;4.90;;;15.50;99.90;;;;;;5075020;28;20223;-65
2021/09/20 04:08:18;;;;;;;7.83;5.80;;;15.50;99.90;;;;;;5075054;28;20692;-63
2021/09/20 04:10:43;;;;;;;6.30;4.73;;;15.50;99.90;;;;;;5072929;28;20177;-64
2021/09/20 04:13:10;;;;;;;6.23;4.20;;;15.50;99.90;;;;;;5073525;28;20169;-65
2021/09/20 04:15:37;;;;;;;6.13;5.00;;;15.50;99.90;;;;;;5074473;28;20197;-64
2021/09/20 04:18:04;;;;;;;6.07;4.80;;;15.50;99.90;;;;;;5113846;28;20471;-64
2021/09/20 04:20:30;;;;;;;4.10;3.70;;;15.50;99.90;;;;;;5112484;28;20471;-64
2021/09/20 04:22:55;;;;;;;6.83;5.20;;;15.50;99.90;;;;;;5112163;28;20432;-64
2021/09/20 04:25:21;;;;;;;7.23;5.90;;;15.50;99.90;;;;;;5111937;28;20249;-64
2021/09/20 04:27:47;;;;;;;6.10;4.50;;;15.50;99.90;;;;;;5092800;28;20187;-64
2021/09/20 04:30:12;;;;;;;6.00;4.93;;;15.40;99.90;;;;;;5105185;28;20207;-64
2021/09/20 04:32:38;;;;;;;6.50;4.57;;;15.40;99.90;;;;;;5091198;28;20314;-64
2021/09/20 04:35:05;;;;;;;5.57;5.00;;;15.40;99.90;;;;;;5093910;28;20279;-64
2021/09/20 04:37:30;;;;;;;5.40;4.27;;;15.40;99.90;;;;;;5095379;28;20902;-64
2021/09/20 04:39:56;;;;;;;4.90;4.40;;;15.40;99.90;;;;;;5077122;28;20496;-64
2021/09/20 04:42:21;;;;;;;9.53;4.83;;;15.40;99.90;;;;;;5093752;28;20183;-63
2021/09/20 04:44:47;;;;;;;7.13;5.70;;;15.30;99.90;;;;;;5076926;28;20196;-63
2021/09/20 04:47:13;;;;;;;5.30;4.40;;;15.30;99.90;;;;;;5095250;28;20211;-64
2021/09/20 04:49:39;;;;;;;5.43;4.80;;;15.30;99.90;;;;;;5095101;28;20200;-63
2021/09/20 04:52:05;;;;;;;9.33;5.40;;;15.30;99.90;;;;;;5095058;28;20172;-63
2021/09/20 04:54:30;;;;;;;5.60;4.13;;;15.30;99.90;;;;;;5076743;28;20444;-63
2021/09/20 04:56:56;;;;;;;7.50;5.53;;;15.30;99.90;;;;;;5094908;28;20401;-63
2021/09/20 04:59:21;;;;;;;5.73;5.17;;;15.30;99.90;;;;;;5094808;28;20239;-63
2021/09/20 05:01:47;;;;;;;5.50;4.63;;;15.30;99.90;;;;;;5094653;28;20251;-63
2021/09/20 05:04:14;;;;;;;5.57;4.80;;;15.20;99.90;;;;;;5094730;28;20192;-63
2021/09/20 05:06:40;;;;;;;5.30;4.73;;;15.30;99.90;;;;;;5094860;28;20179;-64
2021/09/20 05:09:07;;;;;;;8.03;5.27;;;15.20;99.90;;;;;;5095183;28;20447;-63
2021/09/20 05:11:33;;;;;;;6.23;4.43;;;15.30;99.90;;;;;;5075199;28;20383;-63
2021/09/20 05:13:59;;;;;;;6.00;5.17;;;15.30;99.90;;;;;;5093231;28;20451;-64
2021/09/20 05:16:24;;;;;;;4.93;4.40;;;15.30;99.90;;;;;;5092473;28;20907;-63
2021/09/20 05:18:50;;;;;;;4.67;4.20;;;15.30;99.90;;;;;;5072511;28;20596;-63
2021/09/20 05:21:15;;;;;;;6.63;5.60;;;15.30;99.90;;;;;;5099634;28;20677;-64
2021/09/20 05:23:43;;;;;;;7.20;5.50;;;15.30;99.90;;;;;;5093054;28;20247;-64
2021/09/20 05:26:09;;;;;;;6.40;4.80;;;15.30;99.90;;;;;;5088935;28;20278;-63
2021/09/20 05:28:35;;;;;;;5.97;4.70;;;15.30;99.90;;;;;;5094388;28;20503;-63
2021/09/20 05:31:00;;;;;;;6.30;5.10;;;15.30;99.90;;;;;;5097685;28;20468;-65
2021/09/20 05:33:26;;;;;;;7.27;5.30;;;15.20;99.90;;;;;;5096258;28;20652;-65
2021/09/20 05:35:51;;;;;;;5.57;5.00;;;15.20;99.90;;;;;;5103933;28;20183;-64
2021/09/20 05:38:18;;;;;;;7.07;5.57;;;15.20;99.90;;;;;;5094888;28;20204;-65
2021/09/20 05:40:44;;;;;;;6.77;5.90;;;15.20;99.90;;;;;;5082226;28;20275;-64
2021/09/20 05:43:10;;;;;;;7.33;5.60;;;15.10;99.90;;;;;;5092635;28;20424;-64
2021/09/20 05:45:37;;;;;;;8.50;6.50;;;15.10;99.90;;;;;;5089064;28;20437;-64
2021/09/20 05:48:03;;;;;;;7.97;6.13;;;15.00;99.90;;;;;;5096267;28;20428;-63
2021/09/20 05:50:29;;;;;;;9.97;6.70;;;15.00;99.90;;;;;;5079554;28;20544;-63
2021/09/20 05:52:55;;;;;;;9.27;6.37;;;14.90;99.90;;;;;;5102927;28;20508;-64
2021/09/20 05:55:22;;;;;;;8.47;6.57;;;14.90;99.90;;;;;;5098849;28;20200;-65
2021/09/20 05:57:47;;;;;;;8.73;6.07;;;14.90;99.90;;;;;;5098786;28;20417;-63
2021/09/20 06:00:14;;;;;;;8.23;6.30;;;14.90;99.90;;;;;;5081218;28;20472;-65
2021/09/20 06:02:40;;;;;;;8.23;6.73;;;14.80;99.90;;;;;;5080247;28;20189;-63
2021/09/20 06:05:08;;;;;;;7.63;6.73;;;14.80;99.90;;;;;;5082160;28;20572;-63
2021/09/20 06:07:34;;;;;;;10.30;7.33;;;14.80;99.90;;;;;;5098557;28;20421;-63
2021/09/20 06:10:00;;;;;;;8.53;6.73;;;14.70;99.90;;;;;;5096950;28;20460;-65
2021/09/20 06:12:26;;;;;;;9.77;7.33;;;14.70;99.90;;;;;;5074343;28;20534;-63
2021/09/20 06:14:52;;;;;;;10.87;7.63;;;14.70;99.90;;;;;;5102878;28;20530;-63
2021/09/20 06:17:17;;;;;;;11.23;7.43;;;14.70;99.90;;;;;;5093884;28;20234;-65
2021/09/20 06:19:43;;;;;;;9.40;7.50;;;14.70;99.90;;;;;;5077857;28;20743;-63
2021/09/20 06:22:09;;;;;;;9.80;7.63;;;14.70;99.90;;;;;;5102172;28;20228;-64
2021/09/20 06:24:34;;;;;;;10.53;7.37;;;14.70;99.90;;;;;;5100077;28;20511;-63
2021/09/20 06:27:00;;;;;;;11.90;8.90;;;14.70;99.90;;;;;;5085520;28;20187;-65
2021/09/20 06:29:25;;;;;;;9.47;7.60;;;14.70;99.90;;;;;;5099469;28;20680;-63
2021/09/20 06:31:51;;;;;;;9.80;8.27;;;14.70;99.90;;;;;;5081952;28;20692;-64
2021/09/20 06:34:17;;;;;;;9.73;7.40;;;14.70;99.90;;;;;;5092327;28;20199;-63
2021/09/20 06:36:43;;;;;;;11.20;8.57;;;14.80;99.90;;;;;;5090411;28;20503;-64
2021/09/20 06:39:10;;;;;;;11.10;7.87;;;14.80;99.90;;;;;;5075308;28;20220;-66
2021/09/20 06:41:38;;;;;;;12.67;8.30;;;14.80;99.90;;;;;;5110591;28;20412;-65
2021/09/20 06:44:04;;;;;;;9.03;7.23;;;14.80;99.90;;;;;;5102631;28;20438;-65
2021/09/20 06:46:31;;;;;;;10.63;7.70;;;14.90;99.90;;;;;;5094431;28;20382;-64
2021/09/20 06:48:58;;;;;;;10.17;8.57;;;14.90;99.90;;;;;;5095277;28;20445;-66
2021/09/20 06:51:24;;;;;;;16.10;8.73;;;14.90;99.90;;;;;;5091431;28;20790;-63
2021/09/20 06:53:50;;;;;;;9.50;7.83;;;14.80;99.90;;;;;;5101531;28;20532;-64
2021/09/20 06:56:17;;;;;;;12.33;8.63;;;14.70;99.90;;;;;;5095255;28;20422;-66
2021/09/20 06:58:42;;;;;;;9.47;7.87;;;14.60;99.90;;;;;;5086309;28;20488;-63
2021/09/20 07:01:08;;;;;;;12.50;9.30;;;14.60;99.90;;;;;;5075622;28;20415;-64
2021/09/20 07:03:34;;;;;;;13.57;9.30;;;14.60;99.90;;;;;;5108694;28;20207;-63
2021/09/20 07:05:59;;;;;;;11.00;9.07;;;14.50;99.90;;;;;;5104629;28;20215;-65
2021/09/20 07:08:25;;;;;;;14.10;9.80;;;14.50;99.90;;;;;;5077338;28;20173;-66
2021/09/20 07:10:50;;;;;;;12.63;9.27;;;14.50;99.90;;;;;;5114067;28;20529;-64
2021/09/20 07:13:16;;;;;;;12.40;8.43;;;14.40;99.90;;;;;;5100966;28;20172;-64
2021/09/20 07:15:42;;;;;;;11.87;8.60;;;14.30;99.90;;;;;;5095385;28;20180;-63
2021/09/20 07:18:07;;;;;;;12.43;8.70;;;14.30;99.90;;;;;;5103845;28;20330;-63
2021/09/20 07:20:33;;;;;;;15.47;9.97;;;14.30;99.90;;;;;;5087945;28;20200;-64
2021/09/20 07:23:00;;;;;;;14.00;9.40;;;14.30;99.90;;;;;;5100444;28;20399;-64
2021/09/20 07:25:26;;;;;;;10.60;8.27;;;14.30;99.90;;;;;;5074883;28;20492;-65
2021/09/20 07:27:52;;;;;;;12.40;9.03;;;14.40;99.90;;;;;;5077020;28;20792;-64
2021/09/20 07:30:18;;;;;;;10.50;7.83;;;14.40;99.90;;;;;;5102942;28;20445;-64
2021/09/20 07:32:49;;;;;;;10.93;8.77;;;14.40;99.90;;;;;;5091534;28;20937;-66
2021/09/20 07:35:16;;;;;;;12.60;8.63;;;14.50;99.90;;;;;;5075241;28;20452;-63
2021/09/20 07:37:54;;;;;;;10.57;8.20;;;14.50;99.90;;;;;;5091928;28;20891;-64
2021/09/20 07:40:25;;;;;;;10.50;8.87;;;14.50;99.90;;;;;;5082612;28;20456;-64
2021/09/20 07:42:53;;;;;;;11.87;9.30;;;14.40;99.90;;;;;;5084777;28;20432;-65
2021/09/20 07:45:19;;;;;;;10.23;8.90;;;14.40;99.90;;;;;;5061525;28;20547;-63
2021/09/20 07:47:44;;;;;;;11.00;8.97;;;14.30;99.90;;;;;;5093020;28;20574;-64
2021/09/20 07:50:11;;;;;;;12.70;8.27;;;14.30;99.90;;;;;;5105942;28;20536;-65
2021/09/20 07:52:37;;;;;;;10.80;8.87;;;14.30;99.90;;;;;;5102824;28;20200;-63
2021/09/20 07:55:05;;;;;;;9.77;7.77;;;14.30;99.90;;;;;;5073615;28;20465;-64
2021/09/20 07:57:31;;;;;;;13.33;7.90;;;14.30;99.90;;;;;;5071799;28;20177;-65
2021/09/20 07:59:56;;;;;;;11.23;8.80;;;14.20;99.90;;;;;;5078410;28;20541;-65
2021/09/20 08:02:22;;;;;;;10.20;8.27;;;14.20;99.90;;;;;;5095350;28;20504;-64
2021/09/20 08:04:48;;;;;;;10.90;8.50;;;14.10;99.90;;;;;;5097299;28;20279;-64
2021/09/20 08:07:13;;;;;;;9.33;8.37;;;14.10;99.90;;;;;;5087886;28;20186;-65
2021/09/20 08:09:39;;;;;;;10.60;7.63;;;14.10;99.90;;;;;;5089845;28;20269;-63
2021/09/20 08:12:05;;;;;;;10.90;7.97;;;14.10;99.90;;;;;;5070695;28;20184;-64
2021/09/20 08:14:32;;;;;;;11.70;8.80;;;14.10;99.90;;;;;;5092530;28;20196;-63
2021/09/20 08:16:57;;;;;;;12.25;7.90;;;14.10;99.90;;;;;;5092635;28;20236;-64
2021/09/20 08:19:23;;;;;;;12.70;8.33;;;14.00;99.90;;;;;;5096002;28;20226;-65
2021/09/20 08:21:49;;;;;;;11.77;8.30;;;14.10;99.90;;;;;;5095727;28;20192;-63
2021/09/20 08:24:15;;;;;;;12.30;8.80;;;14.00;99.90;;;;;;5097834;28;20196;-63
2021/09/20 08:26:41;;;;;;;12.77;9.50;;;14.00;99.90;;;;;;5096412;28;20204;-64
2021/09/20 08:29:10;;;;;;;11.23;8.90;;;14.10;99.90;;;;;;5090778;28;20519;-65
2021/09/20 08:31:36;;;;;;;11.17;8.20;;;14.00;99.90;;;;;;5081560;28;20440;-63
2021/09/20 08:34:04;;;;;;;11.03;8.70;;;14.00;99.90;;;;;;5071231;28;20456;-64
2021/09/20 08:36:29;;;;;;;13.57;8.83;;;14.00;99.90;;;;;;5090506;28;20469;-63
2021/09/20 08:38:55;;;;;;;12.30;9.37;;;14.00;99.90;;;;;;5098889;28;20472;-67
2021/09/20 08:41:21;;;;;;;11.77;8.60;;;13.90;99.90;;;;;;5093620;28;20189;-64
2021/09/20 08:43:47;;;;;;;11.10;8.50;;;14.00;99.90;;;;;;5096366;28;20265;-66
2021/09/20 08:46:13;;;;;;;14.70;8.70;;;14.00;99.90;;;;;;5085196;28;20424;-66
2021/09/20 08:48:40;;;;;;;11.67;8.87;;;14.00;99.90;;;;;;5104048;28;20460;-66
2021/09/20 08:51:07;;;;;;;13.65;10.27;;;14.00;99.90;;;;;;5090699;28;20185;-67
2021/09/20 08:53:33;;;;;;;11.73;9.60;;;14.00;99.90;;;;;;5088932;28;20200;-65
2021/09/20 08:55:59;;;;;;;13.67;9.70;;;14.00;99.90;;;;;;5077817;28;20433;-66
2021/09/20 08:58:25;;;;;;;11.83;8.90;;;14.00;99.90;;;;;;5093767;28;20473;-61
2021/09/20 09:00:52;;;;;;;11.50;9.30;;;14.00;99.90;;;;;;5077118;28;20475;-64
2021/09/20 09:03:20;;;;;;;11.33;8.60;;;14.00;99.90;;;;;;5097776;28;21003;-63
2021/09/20 09:05:48;;;;;;;13.63;10.30;;;14.00;99.90;;;;;;5089955;28;20447;-66
2021/09/20 09:08:17;;;;;;;12.40;8.87;;;14.10;99.90;;;;;;5080258;28;20535;-64
2021/09/20 09:10:45;;;;;;;12.20;8.50;;;14.10;99.90;;;;;;5094975;28;20458;-65
2021/09/20 09:13:12;;;;;;;12.17;9.30;;;14.10;99.90;;;;;;5083692;28;20443;-66
2021/09/20 09:15:39;;;;;;;13.43;9.10;;;14.20;99.90;;;;;;5085954;28;20495;-66
2021/09/20 09:18:06;;;;;;;13.73;8.40;;;14.20;99.90;;;;;;5086715;28;20714;-64
2021/09/20 09:20:34;;;;;;;13.53;9.57;;;14.20;99.90;;;;;;5092123;28;20988;-64
2021/09/20 09:23:06;;;;;;;11.90;8.53;;;14.20;99.90;;;;;;5095528;28;20444;-67
2021/09/20 09:25:36;;;;;;;10.60;8.40;;;14.30;99.90;;;;;;5091644;28;20531;-63
2021/09/20 09:28:18;;;;;;;11.40;8.93;;;14.30;99.90;;;;;;5090022;28;20755;-64
2021/09/20 09:30:49;;;;;;;12.70;9.97;;;14.30;99.90;;;;;;5078179;28;21042;-66
2021/09/20 09:33:17;;;;;;;11.20;8.87;;;14.30;99.90;;;;;;5091904;28;20401;-66
2021/09/20 09:35:46;;;;;;;10.67;8.20;;;14.30;99.90;;;;;;5101274;28;20524;-67
2021/09/20 09:38:14;;;;;;;9.73;8.50;;;14.30;99.90;;;;;;5096168;28;20417;-64
2021/09/20 09:40:58;;;;;;;15.63;10.27;;;14.30;99.90;;;;;;5075373;28;20421;-66
2021/09/20 09:43:35;;;;;;;12.63;9.33;;;14.30;99.90;;;;;;5075560;28;20435;-65
2021/09/20 09:46:17;;;;;;;13.37;9.20;;;14.30;99.90;;;;;;5100081;28;20423;-67
2021/09/20 09:48:44;;;;;;;13.27;9.70;;;14.40;99.90;;;;;;5091767;28;20436;-65
2021/09/20 09:51:10;;;;;;;12.80;9.33;;;14.40;99.90;;;;;;5088141;28;20425;-64
2021/09/20 09:53:42;;;;;;;14.93;10.00;;;14.40;99.90;;;;;;5093810;28;20495;-66
2021/09/20 09:56:13;;;;;;;13.77;9.50;;;14.40;99.90;;;;;;5089162;28;20444;-64
2021/09/20 09:58:57;;;;;;;12.03;10.20;;;14.50;99.90;;;;;;5072136;28;21043;-63
2021/09/20 10:01:28;;;;;;;12.70;9.70;;;14.50;99.90;;;;;;5089756;28;20421;-66
2021/09/20 10:04:23;;;;;;;15.23;10.00;;;14.50;99.90;;;;;;5092156;28;20524;-64
2021/09/20 10:06:50;;;;;;;12.50;9.70;;;14.50;99.90;;;;;;5094100;28;20523;-66
2021/09/20 10:09:18;;;;;;;13.30;9.90;;;14.60;99.90;;;;;;5096404;28;20441;-63
2021/09/20 10:11:47;;;;;;;13.13;10.20;;;14.60;99.90;;;;;;5087141;28;20512;-64
2021/09/20 10:14:14;;;;;;;15.10;10.50;;;14.60;99.90;;;;;;5075580;28;20450;-64
2021/09/20 10:16:40;;;;;;;14.43;9.80;;;14.50;99.90;;;;;;5088940;28;20826;-64
2021/09/20 10:19:06;;;;;;;18.33;11.80;;;14.50;99.90;;;;;;5096526;28;20488;-67
2021/09/20 10:21:33;;;;;;;16.03;11.27;;;14.60;99.90;;;;;;5098992;28;20420;-67
2021/09/20 10:24:01;;;;;;;12.07;9.83;;;14.60;99.90;;;;;;5094354;28;20497;-64
2021/09/20 10:26:28;;;;;;;14.23;11.37;;;14.60;99.90;;;;;;5094769;28;20559;-64
2021/09/20 10:28:57;;;;;;;12.60;8.80;;;14.60;99.90;;;;;;5095601;28;20460;-66
2021/09/20 10:31:24;;;;;;;18.63;11.77;;;14.60;99.90;;;;;;5092915;28;20448;-64
2021/09/20 10:34:10;;;;;;;13.90;9.70;;;14.60;99.90;;;;;;5098372;28;20468;-67
2021/09/20 10:36:51;;;;;;;12.80;10.60;;;14.70;99.90;;;;;;5100356;28;20497;-64
2021/09/20 10:39:17;;;;;;;14.50;10.27;;;14.70;99.90;;;;;;5089155;28;20842;-67
2021/09/20 10:41:43;;;;;;;14.43;9.93;;;14.70;99.90;;;;;;5075842;28;20546;-65
2021/09/20 10:44:11;;;;;;;16.20;11.53;;;14.70;99.90;;;;;;5086356;28;20424;-65
2021/09/20 10:46:41;;;;;;;17.50;11.20;;;14.70;99.90;;;;;;5097253;28;20395;-64
2021/09/20 10:49:21;;;;;;;15.90;11.40;;;14.70;99.90;;;;;;5071190;28;20586;-66
2021/09/20 10:52:05;;;;;;;14.97;11.20;;;14.80;99.90;;;;;;5103633;28;20410;-67
2021/09/20 10:54:31;;;;;;;17.00;11.80;;;14.80;99.90;;;;;;5075697;28;20448;-66
2021/09/20 10:57:19;;;;;;;17.53;13.27;;;14.80;99.90;;;;;;5091692;28;20977;-64
2021/09/20 10:59:45;;;;;;;19.00;12.77;;;14.80;99.90;;;;;;5091284;28;20450;-64
2021/09/20 11:02:32;;;;;;;16.00;12.60;;;14.80;99.90;;;;;;5090022;28;20389;-63
2021/09/20 11:05:08;;;;;;;20.83;14.27;;;14.80;99.90;;;;;;5079329;28;20856;-64
2021/09/20 11:07:48;;;;;;;16.63;12.13;;;14.80;99.90;;;;;;5093496;28;20791;-64
2021/09/20 11:10:14;;;;;;;15.33;13.00;;;14.80;99.90;;;;;;5070662;28;20483;-65
2021/09/20 11:12:58;;;;;;;20.53;14.00;;;14.80;99.90;;;;;;5087065;28;20760;-66
2021/09/20 11:15:24;;;;;;;21.33;12.67;;;14.80;99.90;;;;;;5095780;28;20410;-64
2021/09/20 11:17:51;;;;;;;20.80;14.10;;;14.80;99.90;;;;;;5086439;28;20483;-66
2021/09/20 11:20:30;;;;;;;16.90;12.87;;;14.80;99.90;;;;;;5095255;28;21041;-67
2021/09/20 11:23:17;;;;;;;18.20;13.90;;;14.80;99.90;;;;;;5097456;28;20423;-67
2021/09/20 11:26:27;;;;;;;18.97;13.43;;;14.80;99.90;;;;;;5091080;28;20728;-64
2021/09/20 11:28:53;;;;;;;21.47;13.93;;;14.80;99.90;;;;;;5064364;28;20465;-66
2021/09/20 11:31:25;;;;;;;19.93;13.80;;;14.90;99.90;;;;;;5092919;28;20417;-64
2021/09/20 11:33:51;;;;;;;17.77;12.50;;;14.90;99.90;;;;;;5094307;28;20460;-64
2021/09/20 11:36:20;;;;;;;20.70;13.90;;;15.00;99.90;;;;;;5091165;28;20417;-67
2021/09/20 11:38:46;;;;;;;17.37;12.20;;;15.00;99.90;;;;;;5086941;28;20486;-64
2021/09/20 11:41:22;;;;;;;15.20;12.17;;;15.00;99.90;;;;;;5094170;28;20839;-64
2021/09/20 11:43:48;;;;;;;15.63;12.10;;;15.00;99.90;;;;;;5078651;28;20856;-67
2021/09/20 11:46:19;;;;;;;15.77;12.03;;;15.00;99.90;;;;;;5091497;28;20845;-66
2021/09/20 11:48:44;;;;;;;16.53;12.37;;;15.10;99.90;;;;;;5085244;28;20498;-64
2021/09/20 11:51:10;;;;;;;17.03;12.30;;;15.10;99.90;;;;;;5092085;28;20506;-64
2021/09/20 11:53:35;;;;;;;19.17;13.00;;;15.10;99.90;;;;;;5084823;28;20205;-66
2021/09/20 11:56:01;;;;;;;18.77;12.57;;;15.10;99.90;;;;;;5089735;28;20182;-67
2021/09/20 11:58:26;;;;;;;16.40;12.17;;;15.10;99.90;;;;;;5079229;28;20239;-64
2021/09/20 12:00:52;;;;;;;17.43;11.80;;;15.10;99.90;;;;;;5081981;28;20181;-66
2021/09/20 12:03:18;;;;;;;16.63;11.90;;;15.10;99.90;;;;;;5083248;28;20218;-64
2021/09/20 12:05:46;;;;;;;13.83;10.90;;;15.10;99.90;;;;;;5079308;28;20173;-64
2021/09/20 12:08:14;;;;;;;16.97;12.90;;;15.10;99.90;;;;;;5077785;28;20414;-65
2021/09/20 12:10:47;;;;;;;15.33;11.13;;;15.00;99.90;;;;;;5087242;28;20405;-64
2021/09/20 12:13:16;;;;;;;17.43;10.70;;;15.00;99.90;;;;;;5082211;28;20430;-63
2021/09/20 12:15:45;;;;;;;17.67;11.43;;;15.00;99.90;;;;;;5087797;28;20433;-63
2021/09/20 12:18:19;;;;;;;16.50;11.83;;;15.00;99.90;;;;;;5098442;28;20423;-64
2021/09/20 12:20:47;;;;;;;15.50;11.90;;;15.00;99.90;;;;;;5108216;28;20402;-64
2021/09/20 12:23:33;;;;;;;15.93;11.73;;;15.00;99.90;;;;;;5092493;28;20553;-64
2021/09/20 12:26:04;;;;;;;15.07;11.00;;;15.00;99.90;;;;;;5067541;28;20465;-66
2021/09/20 12:28:39;;;;;;;15.90;11.57;;;15.00;99.90;;;;;;5088083;28;20384;-64
2021/09/20 12:31:11;;;;;;;15.70;12.13;;;15.00;99.90;;;;;;5093065;28;20464;-67
2021/09/20 12:33:56;;;;;;;18.70;12.20;;;15.00;99.90;;;;;;5067981;28;20521;-64
2021/09/20 12:36:26;;;;;;;19.00;12.83;;;15.00;99.90;;;;;;5095856;28;20391;-67
2021/09/20 12:39:02;;;;;;;16.53;11.33;;;15.00;99.90;;;;;;5092026;28;20559;-64
2021/09/20 12:41:38;;;;;;;16.47;11.43;;;14.90;99.90;;;;;;5083433;28;20411;-64